Skanee, Michigan
Current Conditions -  °F | °C
As of 5:53 AM on Friday 28 Nov 2014 (Local Time) from KCMX Reporting Station
Overcast Overcast  
Wind Chill: -2°   Ceiling: 11000
Heat Index:   Visibility: 10mi
Dew Point:   Wind: 5mph
Humidity: 73%   Direction: 230°SW
Pressure: 30.16"   Gusts: NA
Location:  46.87°N, 88.21°W
Report Text: KCMX 281053Z AUTO 23004KT 10SM OVC110 M14/M18 A3016 RMK AO2 SLP241 T11391178
Loading
Personal Weather Stations






























Interactive Weather Map New forecast layout! Learn more

10-Day Weather Forecast

Advertisements
Track Severe Weather on mobile